createdAt,value
2022-07-31T00:00:16.284Z,18.00
2022-07-31T00:02:44.506Z,18.00
2022-07-31T00:05:11.691Z,18.00
2022-07-31T00:07:39.025Z,17.90
2022-07-31T00:10:06.702Z,17.90
2022-07-31T00:12:36.648Z,17.80
2022-07-31T00:15:05.705Z,17.80
2022-07-31T00:17:33.428Z,17.80
2022-07-31T00:20:00.826Z,17.80
2022-07-31T00:22:27.995Z,17.70
2022-07-31T00:24:55.163Z,17.70
2022-07-31T00:27:23.480Z,17.70
2022-07-31T00:29:51.134Z,17.60
2022-07-31T00:32:18.347Z,17.70
2022-07-31T00:34:45.708Z,17.60
2022-07-31T00:37:12.922Z,17.60
2022-07-31T00:39:40.312Z,17.60
2022-07-31T00:42:17.372Z,17.50
2022-07-31T00:44:44.581Z,17.60
2022-07-31T00:47:15.447Z,17.50
2022-07-31T00:49:42.745Z,17.50
2022-07-31T00:52:10.027Z,17.40
2022-07-31T00:54:37.297Z,17.40
2022-07-31T00:57:05.648Z,17.40
2022-07-31T00:59:33.220Z,17.40
2022-07-31T01:02:00.485Z,17.30
2022-07-31T01:04:27.836Z,17.30
2022-07-31T01:07:00.656Z,17.30
2022-07-31T01:09:28.286Z,17.30
2022-07-31T01:12:14.013Z,17.20
2022-07-31T01:14:47.639Z,17.20
2022-07-31T01:17:15.478Z,17.20
2022-07-31T01:19:44.696Z,17.20
2022-07-31T01:22:33.031Z,17.20
2022-07-31T01:25:33.043Z,17.20
2022-07-31T01:28:24.229Z,17.20
2022-07-31T01:31:25.523Z,17.20
2022-07-31T01:34:03.743Z,17.20
2022-07-31T01:36:34.789Z,17.20
2022-07-31T01:39:03.069Z,17.20
2022-07-31T01:41:34.326Z,17.20
2022-07-31T01:44:01.606Z,17.20
2022-07-31T01:46:28.894Z,17.20
2022-07-31T01:48:56.262Z,17.10
2022-07-31T01:51:23.925Z,17.10
2022-07-31T01:53:51.118Z,17.20
2022-07-31T01:56:18.748Z,17.20
2022-07-31T01:58:46.680Z,17.20
2022-07-31T02:01:31.092Z,17.20
2022-07-31T02:04:00.646Z,17.20
2022-07-31T02:06:30.342Z,17.20
2022-07-31T02:08:58.130Z,17.20
2022-07-31T02:11:25.363Z,17.20
2022-07-31T02:13:53.331Z,17.20
2022-07-31T02:16:21.805Z,17.20
2022-07-31T02:18:53.165Z,17.20
2022-07-31T02:21:25.914Z,17.20
2022-07-31T02:23:53.530Z,17.20
2022-07-31T02:26:20.734Z,17.20
2022-07-31T02:28:47.927Z,17.20
2022-07-31T02:31:15.284Z,17.20
2022-07-31T02:33:45.949Z,17.20
2022-07-31T02:36:13.987Z,17.20
2022-07-31T02:38:41.327Z,17.20
2022-07-31T02:41:08.971Z,17.20
2022-07-31T02:43:36.191Z,17.20
2022-07-31T02:46:14.805Z,17.20
2022-07-31T02:48:42.039Z,17.20
2022-07-31T02:51:12.304Z,17.20
2022-07-31T02:53:41.470Z,17.20
2022-07-31T02:56:09.933Z,17.20
2022-07-31T02:58:41.761Z,17.20
2022-07-31T03:01:10.463Z,17.20
2022-07-31T03:03:38.496Z,17.20
2022-07-31T03:06:05.738Z,17.20
2022-07-31T03:08:33.650Z,17.20
2022-07-31T03:11:04.489Z,17.20
2022-07-31T03:13:32.011Z,17.10
2022-07-31T03:15:59.647Z,17.20
2022-07-31T03:18:26.902Z,17.20
2022-07-31T03:20:54.675Z,17.20
2022-07-31T03:23:24.378Z,17.20
2022-07-31T03:25:56.810Z,17.20
2022-07-31T03:28:23.991Z,17.20
2022-07-31T03:30:51.792Z,17.20
2022-07-31T03:33:24.956Z,17.20
2022-07-31T03:35:53.175Z,17.20
2022-07-31T03:38:34.964Z,17.10
2022-07-31T03:41:09.090Z,17.10
2022-07-31T03:43:47.497Z,17.20
2022-07-31T03:46:19.418Z,17.20
2022-07-31T03:48:47.647Z,17.20
2022-07-31T03:51:14.921Z,17.20
2022-07-31T03:53:42.638Z,17.20
2022-07-31T03:56:15.104Z,17.10
2022-07-31T03:58:42.375Z,17.20
2022-07-31T04:01:15.572Z,17.10
2022-07-31T04:03:42.902Z,17.10
2022-07-31T04:06:31.348Z,17.10
2022-07-31T04:09:01.423Z,17.10
2022-07-31T04:11:42.991Z,17.10
2022-07-31T04:14:11.028Z,17.10
2022-07-31T04:16:38.312Z,17.10
2022-07-31T04:19:05.522Z,17.10
2022-07-31T04:21:32.735Z,17.10
2022-07-31T04:24:00.129Z,17.10
2022-07-31T04:26:33.203Z,17.10
2022-07-31T04:29:02.698Z,17.10
2022-07-31T04:31:30.031Z,17.00
2022-07-31T04:33:57.465Z,17.10
2022-07-31T04:36:30.069Z,17.00
2022-07-31T04:39:01.476Z,17.10
2022-07-31T04:41:29.620Z,17.10
2022-07-31T04:43:59.642Z,17.10
2022-07-31T04:46:30.783Z,17.10
2022-07-31T04:48:58.124Z,17.10
2022-07-31T04:51:27.090Z,17.10
2022-07-31T04:53:54.529Z,17.00
2022-07-31T04:56:35.815Z,17.10
2022-07-31T04:59:22.235Z,17.10
2022-07-31T05:01:50.352Z,17.10
2022-07-31T05:04:21.585Z,17.10
2022-07-31T05:06:50.075Z,17.10
2022-07-31T05:09:25.343Z,17.10
2022-07-31T05:11:55.925Z,17.20
2022-07-31T05:14:23.283Z,17.20
2022-07-31T05:16:50.830Z,17.30
2022-07-31T05:19:18.546Z,17.20
2022-07-31T05:22:05.426Z,17.30
2022-07-31T05:24:34.140Z,17.30
2022-07-31T05:27:10.676Z,17.40
2022-07-31T05:29:40.565Z,17.50
2022-07-31T05:32:07.759Z,17.50
2022-07-31T05:34:37.071Z,17.60
2022-07-31T05:37:04.618Z,17.80
2022-07-31T05:39:33.635Z,17.90
2022-07-31T05:42:19.661Z,18.00
2022-07-31T05:45:05.890Z,18.20
2022-07-31T05:47:40.301Z,18.20
2022-07-31T05:50:08.390Z,18.20
2022-07-31T05:52:35.561Z,18.20
2022-07-31T05:55:13.058Z,18.20
2022-07-31T05:57:59.387Z,18.20
2022-07-31T06:00:28.230Z,18.20
2022-07-31T06:02:56.989Z,18.20
2022-07-31T06:05:44.180Z,18.20
2022-07-31T06:08:12.254Z,18.30
2022-07-31T06:10:43.268Z,18.30
2022-07-31T06:13:11.329Z,18.40
2022-07-31T06:15:38.681Z,18.40
2022-07-31T06:18:10.378Z,18.50
2022-07-31T06:20:37.814Z,18.50
2022-07-31T06:23:20.042Z,18.50
2022-07-31T06:25:53.254Z,18.50
2022-07-31T06:28:20.903Z,18.50
2022-07-31T06:30:58.458Z,18.50
2022-07-31T06:33:37.070Z,18.60
2022-07-31T06:36:05.335Z,18.60
2022-07-31T06:38:38.004Z,18.60
2022-07-31T06:41:49.453Z,18.70
2022-07-31T06:44:49.004Z,18.70
2022-07-31T06:47:34.544Z,18.70
2022-07-31T06:50:05.639Z,18.80
2022-07-31T06:52:41.753Z,18.70
2022-07-31T06:55:09.283Z,18.70
2022-07-31T06:57:37.743Z,18.70
2022-07-31T07:00:19.900Z,18.70
2022-07-31T07:02:48.209Z,18.80
2022-07-31T07:05:15.934Z,18.80
2022-07-31T07:07:43.190Z,18.80
2022-07-31T07:10:10.465Z,18.80
2022-07-31T07:12:57.891Z,18.80
2022-07-31T07:15:25.573Z,18.90
2022-07-31T07:17:52.870Z,18.90
2022-07-31T07:20:28.517Z,18.90
2022-07-31T07:22:56.339Z,18.90
2022-07-31T07:25:36.347Z,19.00
2022-07-31T07:28:03.811Z,19.00
2022-07-31T07:30:31.462Z,19.00
2022-07-31T07:33:02.830Z,19.00
2022-07-31T07:35:33.913Z,19.10
2022-07-31T07:38:03.389Z,19.10
2022-07-31T07:40:31.163Z,19.20
2022-07-31T07:43:02.808Z,19.20
2022-07-31T07:45:30.927Z,19.20
2022-07-31T07:48:06.446Z,19.20
2022-07-31T07:50:47.383Z,19.20
2022-07-31T07:53:25.866Z,19.20
2022-07-31T07:56:22.133Z,19.20
2022-07-31T07:59:15.269Z,19.30
2022-07-31T08:02:00.936Z,19.30
2022-07-31T08:04:30.950Z,19.40
2022-07-31T08:06:58.158Z,19.40
2022-07-31T08:09:30.015Z,19.40
2022-07-31T08:12:16.106Z,19.50
2022-07-31T08:15:02.376Z,19.60
2022-07-31T08:17:52.817Z,19.70
2022-07-31T08:20:22.330Z,19.70
2022-07-31T08:22:51.265Z,19.70
2022-07-31T08:25:18.454Z,19.70
2022-07-31T08:27:48.014Z,19.80
2022-07-31T08:30:15.870Z,20.00
2022-07-31T08:32:43.187Z,20.10
2022-07-31T08:35:20.670Z,20.10
2022-07-31T08:37:51.638Z,20.30
2022-07-31T08:40:34.965Z,20.40
2022-07-31T08:44:00.775Z,20.60
2022-07-31T08:46:02.508Z,20.70
2022-07-31T08:48:33.203Z,20.80
2022-07-31T08:51:03.810Z,20.80
2022-07-31T08:53:52.938Z,20.90
2022-07-31T08:56:20.784Z,21.00
2022-07-31T08:58:48.003Z,21.10
2022-07-31T09:01:15.262Z,21.20
2022-07-31T09:03:42.590Z,21.30
2022-07-31T09:06:12.728Z,21.40
2022-07-31T09:08:39.952Z,21.50
2022-07-31T09:11:10.590Z,21.60
2022-07-31T09:14:01.439Z,21.80
2022-07-31T09:16:46.510Z,21.80
2022-07-31T09:19:52.431Z,21.90
2022-07-31T09:22:10.231Z,22.00
2022-07-31T09:24:39.789Z,22.10
2022-07-31T09:27:09.283Z,22.20
2022-07-31T09:29:37.783Z,22.30
2022-07-31T09:32:10.512Z,22.40
2022-07-31T09:35:11.680Z,22.40
2022-07-31T09:37:39.306Z,22.60
2022-07-31T09:40:57.120Z,22.70
2022-07-31T09:43:25.947Z,22.70
2022-07-31T09:45:59.758Z,22.70
2022-07-31T09:48:28.896Z,22.80
2022-07-31T09:51:01.287Z,22.70
2022-07-31T09:53:51.803Z,22.80
2022-07-31T09:56:46.727Z,23.00
2022-07-31T09:59:14.110Z,23.00
2022-07-31T10:01:41.799Z,23.00
2022-07-31T10:04:09.028Z,23.00
2022-07-31T10:06:36.497Z,23.10
2022-07-31T10:09:04.535Z,23.10
2022-07-31T10:11:50.623Z,23.20
2022-07-31T10:14:28.547Z,23.20
2022-07-31T10:16:57.003Z,23.30
2022-07-31T10:19:38.391Z,23.40
2022-07-31T10:22:19.985Z,23.40
2022-07-31T10:24:48.919Z,23.50
2022-07-31T10:27:17.281Z,23.70
2022-07-31T10:29:45.352Z,23.80
2022-07-31T10:32:12.678Z,23.90
2022-07-31T10:34:54.469Z,24.00
2022-07-31T10:37:40.066Z,24.20
2022-07-31T10:40:59.991Z,24.20
2022-07-31T10:43:29.332Z,24.20
2022-07-31T10:46:09.474Z,24.20
2022-07-31T10:48:53.813Z,24.20
2022-07-31T10:51:51.895Z,24.20
2022-07-31T10:54:40.960Z,24.30
2022-07-31T10:57:33.171Z,24.40
2022-07-31T11:00:29.554Z,24.60
2022-07-31T11:03:22.839Z,24.70
2022-07-31T11:06:08.562Z,24.70
2022-07-31T11:09:01.402Z,24.70
2022-07-31T11:11:47.303Z,24.70
2022-07-31T11:14:40.308Z,24.90
2022-07-31T11:18:21.078Z,24.90
2022-07-31T11:20:30.771Z,24.90
2022-07-31T11:23:00.215Z,24.90
2022-07-31T11:25:31.288Z,25.00
2022-07-31T11:28:09.574Z,25.00
2022-07-31T11:30:54.130Z,25.00
2022-07-31T11:33:42.221Z,25.00
2022-07-31T11:36:17.859Z,25.20
2022-07-31T11:38:47.466Z,25.30
2022-07-31T11:41:15.133Z,25.40
2022-07-31T11:43:49.606Z,25.40
2022-07-31T11:46:31.859Z,25.40
2022-07-31T11:49:00.093Z,25.30
2022-07-31T11:51:27.563Z,25.30
2022-07-31T11:53:56.778Z,25.20
2022-07-31T11:56:26.066Z,25.10
2022-07-31T11:58:54.955Z,25.00
2022-07-31T12:01:29.800Z,25.00
2022-07-31T12:03:57.531Z,25.00
2022-07-31T12:06:34.996Z,24.90
2022-07-31T12:09:04.082Z,24.80
2022-07-31T12:11:31.246Z,24.80
2022-07-31T12:13:59.385Z,24.70
2022-07-31T12:16:26.696Z,24.80
2022-07-31T12:19:00.550Z,24.80
2022-07-31T12:21:35.215Z,24.90
2022-07-31T12:24:02.763Z,25.00
2022-07-31T12:26:33.673Z,25.10
2022-07-31T12:29:05.011Z,25.00
2022-07-31T12:31:45.895Z,24.90
2022-07-31T12:34:28.746Z,24.90
2022-07-31T12:37:06.204Z,24.90
2022-07-31T12:39:59.711Z,25.00
2022-07-31T12:42:41.011Z,25.00
2022-07-31T12:45:19.435Z,25.00
2022-07-31T12:47:51.355Z,25.00
2022-07-31T12:50:20.701Z,24.90
2022-07-31T12:52:47.876Z,24.90
2022-07-31T12:55:17.281Z,24.80
2022-07-31T12:57:50.512Z,25.00
2022-07-31T13:00:23.537Z,25.10
2022-07-31T13:02:51.876Z,25.30
2022-07-31T13:05:19.254Z,25.60
2022-07-31T13:07:46.725Z,25.80
2022-07-31T13:10:19.793Z,25.90
2022-07-31T13:12:52.355Z,26.00
2022-07-31T13:15:22.581Z,26.10
2022-07-31T13:17:50.508Z,26.30
2022-07-31T13:20:18.576Z,26.40
2022-07-31T13:22:45.738Z,26.60
2022-07-31T13:25:12.971Z,26.70
2022-07-31T13:27:41.581Z,26.80
2022-07-31T13:30:09.813Z,26.90
2022-07-31T13:32:37.058Z,26.90
2022-07-31T13:35:27.235Z,26.80
2022-07-31T13:37:53.540Z,26.70
2022-07-31T13:40:40.712Z,26.70
2022-07-31T13:43:08.041Z,26.60
2022-07-31T13:45:35.256Z,26.30
2022-07-31T13:48:05.629Z,26.20
2022-07-31T13:50:37.214Z,26.10
2022-07-31T13:53:04.599Z,26.00
2022-07-31T13:55:31.922Z,26.30
2022-07-31T13:57:59.638Z,26.40
2022-07-31T14:00:29.191Z,26.40
2022-07-31T14:02:57.114Z,26.50
2022-07-31T14:05:26.504Z,26.60
2022-07-31T14:07:55.462Z,26.70
2022-07-31T14:10:23.160Z,26.80
2022-07-31T14:12:50.424Z,26.80
2022-07-31T14:15:18.291Z,26.90
2022-07-31T14:17:45.781Z,27.00
2022-07-31T14:20:13.355Z,27.00
2022-07-31T14:22:40.988Z,26.90
2022-07-31T14:25:09.308Z,26.70
2022-07-31T14:27:38.470Z,26.40
2022-07-31T14:30:09.262Z,26.30
2022-07-31T14:32:36.521Z,26.20
2022-07-31T14:35:08.002Z,26.10
2022-07-31T14:37:36.121Z,26.00
2022-07-31T14:40:04.921Z,25.90
2022-07-31T14:42:32.377Z,26.00
2022-07-31T14:44:59.845Z,26.20
2022-07-31T14:47:27.027Z,26.40
2022-07-31T14:50:07.192Z,26.30
2022-07-31T14:52:37.225Z,26.10
2022-07-31T14:55:05.625Z,26.10
2022-07-31T14:57:32.799Z,26.10
2022-07-31T15:00:00.044Z,26.10
2022-07-31T15:02:27.352Z,26.00
2022-07-31T15:04:54.562Z,25.90
2022-07-31T15:07:43.614Z,25.80
2022-07-31T15:10:10.291Z,25.70
2022-07-31T15:12:37.602Z,25.70
2022-07-31T15:15:05.888Z,25.70
2022-07-31T15:17:33.050Z,25.60
2022-07-31T15:20:00.237Z,25.60
2022-07-31T15:22:27.494Z,25.50
2022-07-31T15:24:54.751Z,25.50
2022-07-31T15:27:22.260Z,25.50
2022-07-31T15:30:02.023Z,25.40
2022-07-31T15:32:34.713Z,25.50
2022-07-31T15:35:02.313Z,25.60
2022-07-31T15:37:30.219Z,25.60
2022-07-31T15:40:03.902Z,25.70
2022-07-31T15:42:37.965Z,25.80
2022-07-31T15:45:16.236Z,25.80
2022-07-31T15:47:43.621Z,25.80
2022-07-31T15:50:12.020Z,25.80
2022-07-31T15:52:39.590Z,25.80
2022-07-31T15:55:07.499Z,25.80
2022-07-31T15:57:34.735Z,25.70
2022-07-31T16:00:01.966Z,25.70
2022-07-31T16:02:38.054Z,25.60
2022-07-31T16:05:12.077Z,25.40
2022-07-31T16:08:32.920Z,25.40
2022-07-31T16:10:36.309Z,25.40
2022-07-31T16:13:03.659Z,25.30
2022-07-31T16:15:31.837Z,25.30
2022-07-31T16:17:59.022Z,25.30
2022-07-31T16:20:27.156Z,25.30
2022-07-31T16:23:01.092Z,25.20
2022-07-31T16:25:29.584Z,25.20
2022-07-31T16:27:59.565Z,25.20
2022-07-31T16:30:27.334Z,25.20
2022-07-31T16:32:54.948Z,25.20
2022-07-31T16:35:22.226Z,25.20
2022-07-31T16:37:50.878Z,25.20
2022-07-31T16:40:28.175Z,25.20
2022-07-31T16:43:48.649Z,25.10
2022-07-31T16:45:53.489Z,25.10
2022-07-31T16:48:20.748Z,25.20
2022-07-31T16:50:53.717Z,25.20
2022-07-31T16:54:13.289Z,25.20
2022-07-31T16:56:11.319Z,25.20
2022-07-31T16:58:38.598Z,25.20
2022-07-31T17:01:06.315Z,25.10
2022-07-31T17:04:01.297Z,25.10
2022-07-31T17:06:36.012Z,25.10
2022-07-31T17:09:16.346Z,25.00
2022-07-31T17:11:52.861Z,25.00
2022-07-31T17:14:21.900Z,24.90
2022-07-31T17:16:49.751Z,24.90
2022-07-31T17:19:42.333Z,24.90
2022-07-31T17:22:05.098Z,24.80
2022-07-31T17:24:36.511Z,24.80
2022-07-31T17:27:05.760Z,24.80
2022-07-31T17:29:33.288Z,24.70
2022-07-31T17:32:00.518Z,24.70
2022-07-31T17:34:27.759Z,24.60
2022-07-31T17:36:54.946Z,24.60
2022-07-31T17:39:22.175Z,24.60
2022-07-31T17:41:49.401Z,24.60
2022-07-31T17:44:16.561Z,24.60
2022-07-31T17:46:48.226Z,24.50
2022-07-31T17:49:19.357Z,24.50
2022-07-31T17:51:58.974Z,24.50
2022-07-31T17:54:31.279Z,24.50
2022-07-31T17:57:01.787Z,24.50
2022-07-31T17:59:29.086Z,24.40
2022-07-31T18:02:00.231Z,24.40
2022-07-31T18:04:31.877Z,24.40
2022-07-31T18:06:59.600Z,24.40
2022-07-31T18:09:26.965Z,24.40
2022-07-31T18:11:54.375Z,24.40
2022-07-31T18:14:24.498Z,24.40
2022-07-31T18:16:52.623Z,24.30
2022-07-31T18:19:23.075Z,24.30
2022-07-31T18:21:50.726Z,24.30
2022-07-31T18:24:18.487Z,24.20
2022-07-31T18:26:45.805Z,24.20
2022-07-31T18:29:13.057Z,24.20
2022-07-31T18:31:40.246Z,24.20
2022-07-31T18:34:07.480Z,24.10
2022-07-31T18:36:34.982Z,24.10
2022-07-31T18:39:03.062Z,24.00
2022-07-31T18:41:30.224Z,24.00
2022-07-31T18:43:57.649Z,24.00
2022-07-31T18:46:25.047Z,23.90
2022-07-31T18:48:55.849Z,23.90
2022-07-31T18:51:25.219Z,23.80
2022-07-31T18:53:54.461Z,23.70
2022-07-31T18:56:23.750Z,23.70
2022-07-31T18:58:51.482Z,23.60
2022-07-31T19:01:18.799Z,23.60
2022-07-31T19:03:46.611Z,23.60
2022-07-31T19:06:13.848Z,23.50
2022-07-31T19:08:41.089Z,23.50
2022-07-31T19:11:08.272Z,23.40
2022-07-31T19:13:35.663Z,23.40
2022-07-31T19:16:02.908Z,23.30
2022-07-31T19:18:30.096Z,23.30
2022-07-31T19:21:23.009Z,23.30
2022-07-31T19:23:44.695Z,23.20
2022-07-31T19:26:11.865Z,23.20
2022-07-31T19:28:45.315Z,23.10
2022-07-31T19:31:13.182Z,23.10
2022-07-31T19:33:40.750Z,23.10
2022-07-31T19:36:08.287Z,23.10
2022-07-31T19:38:38.195Z,23.10
2022-07-31T19:41:05.382Z,23.10
2022-07-31T19:43:33.109Z,23.10
2022-07-31T19:46:11.305Z,23.00
2022-07-31T19:48:41.035Z,23.10
2022-07-31T19:51:08.851Z,23.00
2022-07-31T19:53:36.092Z,23.00
2022-07-31T19:56:05.611Z,23.00
2022-07-31T19:58:34.582Z,23.00
2022-07-31T20:01:05.245Z,23.00
2022-07-31T20:03:32.795Z,23.00
2022-07-31T20:06:00.280Z,22.90
2022-07-31T20:08:30.953Z,22.90
2022-07-31T20:11:03.113Z,22.90
2022-07-31T20:13:30.992Z,22.80
2022-07-31T20:15:58.288Z,22.80
2022-07-31T20:18:29.016Z,22.80
2022-07-31T20:20:57.949Z,22.70
2022-07-31T20:23:28.137Z,22.80
2022-07-31T20:25:55.428Z,22.70
2022-07-31T20:28:22.818Z,22.70
2022-07-31T20:30:49.998Z,22.70
2022-07-31T20:33:17.251Z,22.70
2022-07-31T20:35:48.555Z,22.60
2022-07-31T20:38:18.451Z,22.70
2022-07-31T20:40:52.878Z,22.70
2022-07-31T20:43:27.018Z,22.70
2022-07-31T20:45:57.281Z,22.70
2022-07-31T20:48:30.992Z,22.70
2022-07-31T20:51:02.604Z,22.70
2022-07-31T20:53:30.115Z,22.70
2022-07-31T20:55:57.346Z,22.70
2022-07-31T20:58:24.807Z,22.80
2022-07-31T21:00:52.347Z,22.70
2022-07-31T21:03:19.702Z,22.70
2022-07-31T21:05:47.111Z,22.70
2022-07-31T21:08:14.343Z,22.70
2022-07-31T21:10:41.627Z,22.70
2022-07-31T21:13:09.063Z,22.70
2022-07-31T21:15:43.229Z,22.70
2022-07-31T21:18:13.110Z,22.70
2022-07-31T21:20:49.611Z,22.70
2022-07-31T21:23:20.659Z,22.70
2022-07-31T21:25:48.054Z,22.60
2022-07-31T21:28:15.513Z,22.60
2022-07-31T21:30:42.878Z,22.60
2022-07-31T21:33:10.358Z,22.50
2022-07-31T21:35:39.681Z,22.50
2022-07-31T21:38:10.240Z,22.50
2022-07-31T21:40:39.555Z,22.40
2022-07-31T21:43:06.991Z,22.40
2022-07-31T21:45:41.224Z,22.40
2022-07-31T21:48:18.509Z,22.40
2022-07-31T21:50:45.978Z,22.30
2022-07-31T21:53:13.446Z,22.30
2022-07-31T21:55:40.832Z,22.30
2022-07-31T21:58:08.301Z,22.20
2022-07-31T22:00:35.798Z,22.20
2022-07-31T22:03:03.236Z,22.20
2022-07-31T22:05:49.386Z,22.20
2022-07-31T22:08:16.664Z,22.20
2022-07-31T22:10:44.039Z,22.20
2022-07-31T22:13:11.456Z,22.10
2022-07-31T22:15:58.200Z,22.10
2022-07-31T22:18:28.054Z,22.10
2022-07-31T22:20:55.402Z,22.10
2022-07-31T22:23:23.665Z,22.00
2022-07-31T22:25:50.876Z,22.00
2022-07-31T22:28:20.019Z,22.00
2022-07-31T22:30:47.506Z,22.00
2022-07-31T22:33:14.894Z,22.00
2022-07-31T22:35:42.190Z,22.00
2022-07-31T22:38:11.424Z,21.90
2022-07-31T22:40:38.776Z,21.90
2022-07-31T22:43:47.455Z,22.00
2022-07-31T22:45:54.430Z,21.90
2022-07-31T22:48:22.784Z,21.90
2022-07-31T22:50:50.027Z,21.90
2022-07-31T22:53:17.574Z,21.90
2022-07-31T22:55:44.752Z,21.90
2022-07-31T22:58:14.924Z,21.90
2022-07-31T23:00:42.449Z,21.90
2022-07-31T23:03:09.661Z,21.90
2022-07-31T23:06:27.984Z,21.90
2022-07-31T23:08:24.055Z,21.90
2022-07-31T23:10:51.299Z,21.90
2022-07-31T23:13:18.479Z,21.90
2022-07-31T23:15:45.753Z,21.80
2022-07-31T23:18:12.906Z,21.90
2022-07-31T23:20:40.187Z,21.80
2022-07-31T23:23:07.550Z,21.80
2022-07-31T23:25:35.080Z,21.80
2022-07-31T23:28:02.301Z,21.80
2022-07-31T23:30:29.504Z,21.80
2022-07-31T23:32:56.718Z,21.80
2022-07-31T23:35:23.890Z,21.80
2022-07-31T23:37:51.079Z,21.80
2022-07-31T23:40:18.246Z,21.70
2022-07-31T23:42:45.417Z,21.70
2022-07-31T23:45:15.946Z,21.80
2022-07-31T23:47:44.662Z,21.70
2022-07-31T23:50:14.135Z,21.70
2022-07-31T23:52:44.742Z,21.70
2022-07-31T23:55:12.263Z,21.70
2022-07-31T23:57:40.704Z,21.70
